UAE853 OMDB-OKKK
Flight info
| Callsign | UAE853 |
|---|---|
| Flight time | 1h 23m |
| Altitude | 40000 |
| Route | RIDAP DCT TUMAK DCT KUMBO/N0434F240 A453 DEBTI |
| Aircraft | A359/H-SDE2E3GHIJ1J3J4J5LM1ORWXY/LB1D1 |
Departure
| Time | 2026-05-04 15:37 |
|---|---|
| Airport | Dubai International Airport (OMDB) |
Arrival
| Time | 2026-05-04 17:01 |
|---|---|
| Airport | Kuwait International Airport (OKKK) |
| Time | Latitude | Longitude | Altitude | Speed | Heading |
|---|---|---|---|---|---|
| 2026-05-04 14:54 | 25.25093 | 55.35927 | 27 ft | 0 kts | 211° |
| 2026-05-04 14:54 | 25.25090 | 55.35925 | 28 ft | 0 kts | 211° |
| 2026-05-04 15:25 | 25.25091 | 55.35925 | 27 ft | 2 kts | 211° |
| 2026-05-04 15:25 | 25.25113 | 55.35940 | 27 ft | 4 kts | 211° |
| 2026-05-04 15:26 | 25.25156 | 55.35968 | 27 ft | 4 kts | 221° |
| 2026-05-04 15:26 | 25.25166 | 55.35988 | 27 ft | 4 kts | 286° |
| 2026-05-04 15:26 | 25.25161 | 55.36003 | 27 ft | 0 kts | 301° |
| 2026-05-04 15:30 | 25.25327 | 55.35708 | 27 ft | 20 kts | 302° |
| 2026-05-04 15:30 | 25.25561 | 55.35289 | 27 ft | 22 kts | 301° |
| 2026-05-04 15:31 | 25.25753 | 55.35203 | 27 ft | 18 kts | 31° |
| 2026-05-04 15:31 | 25.25862 | 55.35278 | 27 ft | 19 kts | 31° |
| 2026-05-04 15:32 | 25.25926 | 55.35669 | 28 ft | 23 kts | 122° |
| 2026-05-04 15:32 | 25.25750 | 55.35980 | 28 ft | 25 kts | 121° |
| 2026-05-04 15:33 | 25.25558 | 55.36323 | 28 ft | 28 kts | 122° |
| 2026-05-04 15:34 | 25.25272 | 55.36832 | 28 ft | 23 kts | 122° |
| 2026-05-04 15:34 | 25.25184 | 55.36987 | 28 ft | 24 kts | 122° |
| 2026-05-04 15:34 | 25.24998 | 55.37318 | 30 ft | 26 kts | 121° |
| 2026-05-04 15:35 | 25.24795 | 55.37679 | 29 ft | 29 kts | 121° |
| 2026-05-04 15:35 | 25.24714 | 55.37827 | 29 ft | 21 kts | 121° |
| 2026-05-04 15:35 | 25.24685 | 55.37961 | 29 ft | 16 kts | 53° |
| 2026-05-04 15:36 | 25.24820 | 55.37994 | 31 ft | 10 kts | 306° |
| 2026-05-04 15:36 | 25.24943 | 55.37777 | 32 ft | 67 kts | 302° |
| 2026-05-04 15:36 | 25.25161 | 55.37396 | 33 ft | 110 kts | 300° |
| 2026-05-04 15:37 | 25.25663 | 55.36480 | 33 ft | 167 kts | 301° |
| 2026-05-04 15:37 | 25.26329 | 55.35289 | 380 ft | 191 kts | 301° |
| 2026-05-04 15:37 | 25.27032 | 55.34090 | 1326 ft | 182 kts | 302° |
| 2026-05-04 15:37 | 25.27750 | 55.32862 | 1775 ft | 199 kts | 300° |
| 2026-05-04 15:38 | 25.28490 | 55.31479 | 2058 ft | 219 kts | 300° |
| 2026-05-04 15:38 | 25.29288 | 55.29997 | 2619 ft | 227 kts | 301° |
| 2026-05-04 15:38 | 25.30124 | 55.28496 | 3308 ft | 232 kts | 304° |
| 2026-05-04 15:38 | 25.30996 | 55.26945 | 3847 ft | 244 kts | 295° |
| 2026-05-04 15:39 | 25.31489 | 55.25093 | 4237 ft | 263 kts | 279° |
| 2026-05-04 15:39 | 25.31735 | 55.23057 | 4851 ft | 270 kts | 277° |
| 2026-05-04 15:39 | 25.32156 | 55.18849 | 6165 ft | 280 kts | 276° |
| 2026-05-04 15:40 | 25.32364 | 55.16701 | 6807 ft | 284 kts | 276° |
| 2026-05-04 15:40 | 25.32575 | 55.14515 | 7471 ft | 286 kts | 276° |
| 2026-05-04 15:40 | 25.32786 | 55.12316 | 8102 ft | 289 kts | 276° |
| 2026-05-04 15:40 | 25.33000 | 55.10089 | 8733 ft | 293 kts | 277° |
| 2026-05-04 15:41 | 25.33215 | 55.07844 | 9366 ft | 295 kts | 277° |
| 2026-05-04 15:41 | 25.33432 | 55.05579 | 10001 ft | 298 kts | 277° |
| 2026-05-04 15:41 | 25.33651 | 55.03273 | 10436 ft | 308 kts | 277° |
| 2026-05-04 15:41 | 25.33882 | 55.00849 | 10726 ft | 324 kts | 277° |
| 2026-05-04 15:42 | 25.34125 | 54.98313 | 11013 ft | 339 kts | 277° |
| 2026-05-04 15:42 | 25.34378 | 54.95669 | 11326 ft | 351 kts | 277° |
| 2026-05-04 15:42 | 25.34633 | 54.92962 | 11847 ft | 356 kts | 277° |
| 2026-05-04 15:42 | 25.35033 | 54.90257 | 12427 ft | 358 kts | 285° |
| 2026-05-04 15:43 | 25.35731 | 54.87614 | 13025 ft | 359 kts | 289° |
| 2026-05-04 15:43 | 25.36495 | 54.84971 | 13640 ft | 362 kts | 289° |
| 2026-05-04 15:43 | 25.37265 | 54.82311 | 14234 ft | 364 kts | 289° |
| 2026-05-04 15:43 | 25.38036 | 54.79637 | 14824 ft | 366 kts | 289° |
| 2026-05-04 15:44 | 25.38810 | 54.76945 | 15429 ft | 368 kts | 289° |
| 2026-05-04 15:44 | 25.39584 | 54.74242 | 16000 ft | 370 kts | 289° |
| 2026-05-04 15:44 | 25.40361 | 54.71523 | 16578 ft | 372 kts | 288° |
| 2026-05-04 15:44 | 25.41151 | 54.68773 | 17130 ft | 375 kts | 288° |
| 2026-05-04 15:45 | 25.41935 | 54.66017 | 17666 ft | 378 kts | 288° |
| 2026-05-04 15:45 | 25.42727 | 54.63224 | 18232 ft | 380 kts | 288° |
| 2026-05-04 15:45 | 25.43526 | 54.60424 | 18777 ft | 383 kts | 288° |
| 2026-05-04 15:45 | 25.44344 | 54.57602 | 19310 ft | 386 kts | 288° |
| 2026-05-04 15:46 | 25.45172 | 54.54767 | 19838 ft | 389 kts | 288° |
| 2026-05-04 15:46 | 25.46008 | 54.51907 | 20364 ft | 392 kts | 288° |
| 2026-05-04 15:46 | 25.46851 | 54.49026 | 20949 ft | 394 kts | 288° |
| 2026-05-04 15:46 | 25.47697 | 54.46133 | 21452 ft | 397 kts | 288° |
| 2026-05-04 15:47 | 25.48549 | 54.43211 | 21955 ft | 400 kts | 287° |
| 2026-05-04 15:47 | 25.49404 | 54.40272 | 22457 ft | 403 kts | 287° |
| 2026-05-04 15:47 | 25.50268 | 54.37299 | 22926 ft | 407 kts | 287° |
| 2026-05-04 15:47 | 25.51135 | 54.34314 | 23420 ft | 409 kts | 287° |
| 2026-05-04 15:48 | 25.52011 | 54.31300 | 23889 ft | 412 kts | 287° |
| 2026-05-04 15:48 | 25.52889 | 54.28269 | 24378 ft | 415 kts | 287° |
| 2026-05-04 15:48 | 25.54658 | 54.22157 | 25470 ft | 418 kts | 287° |
| 2026-05-04 15:49 | 25.55545 | 54.19090 | 26017 ft | 419 kts | 287° |
| 2026-05-04 15:49 | 25.56437 | 54.16005 | 26555 ft | 421 kts | 286° |
| 2026-05-04 15:49 | 25.57331 | 54.12915 | 27057 ft | 423 kts | 286° |
| 2026-05-04 15:49 | 25.58226 | 54.09810 | 27584 ft | 424 kts | 286° |
| 2026-05-04 15:50 | 25.59125 | 54.06691 | 28078 ft | 426 kts | 286° |
| 2026-05-04 15:50 | 25.60022 | 54.03573 | 28548 ft | 427 kts | 286° |
| 2026-05-04 15:50 | 25.60922 | 54.00446 | 29027 ft | 429 kts | 286° |
| 2026-05-04 15:50 | 25.61831 | 53.97285 | 29469 ft | 430 kts | 286° |
| 2026-05-04 15:51 | 25.62740 | 53.94117 | 29901 ft | 432 kts | 286° |
| 2026-05-04 15:51 | 25.63651 | 53.90937 | 30330 ft | 434 kts | 286° |
| 2026-05-04 15:51 | 25.64565 | 53.87746 | 30736 ft | 435 kts | 286° |
| 2026-05-04 15:51 | 25.65484 | 53.84539 | 31099 ft | 438 kts | 286° |
| 2026-05-04 15:52 | 25.66405 | 53.81318 | 31457 ft | 440 kts | 286° |
| 2026-05-04 15:52 | 25.67332 | 53.78077 | 31816 ft | 441 kts | 286° |
| 2026-05-04 15:52 | 25.68259 | 53.74829 | 32163 ft | 443 kts | 286° |
| 2026-05-04 15:52 | 25.69175 | 53.71619 | 32497 ft | 445 kts | 286° |
| 2026-05-04 15:53 | 25.70110 | 53.68337 | 32802 ft | 446 kts | 286° |
| 2026-05-04 15:53 | 25.71060 | 53.65002 | 33055 ft | 448 kts | 286° |
| 2026-05-04 15:53 | 25.71988 | 53.61741 | 33303 ft | 451 kts | 286° |
| 2026-05-04 15:53 | 25.72933 | 53.58422 | 33571 ft | 452 kts | 286° |
| 2026-05-04 15:54 | 25.73879 | 53.55090 | 33853 ft | 454 kts | 285° |
| 2026-05-04 15:54 | 25.74823 | 53.51761 | 34236 ft | 452 kts | 285° |
| 2026-05-04 15:54 | 25.75766 | 53.48438 | 34609 ft | 451 kts | 285° |
| 2026-05-04 15:54 | 25.76702 | 53.45133 | 34950 ft | 450 kts | 285° |
| 2026-05-04 15:55 | 25.77643 | 53.41805 | 35249 ft | 450 kts | 285° |
| 2026-05-04 15:55 | 25.78579 | 53.38492 | 35487 ft | 451 kts | 285° |
| 2026-05-04 15:55 | 25.79517 | 53.35167 | 35763 ft | 451 kts | 285° |
| 2026-05-04 15:55 | 25.80451 | 53.31852 | 36069 ft | 451 kts | 285° |
| 2026-05-04 15:56 | 25.81387 | 53.28530 | 36343 ft | 450 kts | 285° |
| 2026-05-04 15:56 | 25.82321 | 53.25212 | 36596 ft | 450 kts | 285° |
| 2026-05-04 15:56 | 25.83264 | 53.21900 | 36860 ft | 450 kts | 286° |
| 2026-05-04 15:56 | 25.84449 | 53.18685 | 37176 ft | 450 kts | 293° |
| 2026-05-04 15:57 | 25.85987 | 53.15668 | 37551 ft | 449 kts | 298° |
| 2026-05-04 15:57 | 25.87652 | 53.12732 | 37821 ft | 449 kts | 299° |
| 2026-05-04 15:57 | 25.89363 | 53.09835 | 38047 ft | 449 kts | 300° |
| 2026-05-04 15:57 | 25.91091 | 53.06964 | 38258 ft | 449 kts | 300° |
| 2026-05-04 15:58 | 25.92832 | 53.04093 | 38470 ft | 448 kts | 300° |
| 2026-05-04 15:58 | 25.94574 | 53.01216 | 38664 ft | 448 kts | 300° |
| 2026-05-04 15:58 | 25.96312 | 52.98332 | 38853 ft | 448 kts | 299° |
| 2026-05-04 15:58 | 25.98033 | 52.95464 | 38999 ft | 449 kts | 299° |
| 2026-05-04 15:59 | 25.99775 | 52.92554 | 39202 ft | 449 kts | 299° |
| 2026-05-04 15:59 | 26.01500 | 52.89666 | 39382 ft | 448 kts | 299° |
| 2026-05-04 15:59 | 26.03214 | 52.86794 | 39677 ft | 445 kts | 299° |
| 2026-05-04 15:59 | 26.04926 | 52.83926 | 39774 ft | 445 kts | 299° |
| 2026-05-04 16:00 | 26.08350 | 52.78175 | 39777 ft | 446 kts | 298° |
| 2026-05-04 16:00 | 26.11454 | 52.72241 | 39776 ft | 442 kts | 293° |
| 2026-05-04 16:01 | 26.14234 | 52.66127 | 39776 ft | 443 kts | 292° |
| 2026-05-04 16:01 | 26.17006 | 52.60004 | 39776 ft | 443 kts | 292° |
| 2026-05-04 16:02 | 26.19785 | 52.53871 | 39776 ft | 444 kts | 292° |
| 2026-05-04 16:03 | 26.23955 | 52.44670 | 39776 ft | 443 kts | 292° |
| 2026-05-04 16:03 | 26.26729 | 52.38537 | 39775 ft | 443 kts | 292° |
| 2026-05-04 16:04 | 26.28896 | 52.32156 | 39776 ft | 440 kts | 284° |
| 2026-05-04 16:04 | 26.31407 | 52.22341 | 39748 ft | 439 kts | 282° |
| 2026-05-04 16:05 | 26.33022 | 52.15762 | 39748 ft | 439 kts | 282° |
| 2026-05-04 16:06 | 26.35476 | 52.05918 | 39756 ft | 439 kts | 282° |
| 2026-05-04 16:07 | 26.38761 | 51.92797 | 39785 ft | 440 kts | 282° |
| 2026-05-04 16:08 | 26.42417 | 51.79769 | 39785 ft | 441 kts | 286° |
| 2026-05-04 16:09 | 26.47786 | 51.63756 | 39795 ft | 440 kts | 287° |
| 2026-05-04 16:10 | 26.52049 | 51.50955 | 39786 ft | 439 kts | 286° |
| 2026-05-04 16:11 | 26.56286 | 51.38172 | 39786 ft | 439 kts | 286° |
| 2026-05-04 16:12 | 26.62634 | 51.19008 | 39785 ft | 438 kts | 286° |
| 2026-05-04 16:13 | 26.66844 | 51.06251 | 39785 ft | 437 kts | 286° |
| 2026-05-04 16:14 | 26.71007 | 50.93486 | 39785 ft | 436 kts | 285° |
| 2026-05-04 16:16 | 26.76090 | 50.77495 | 39777 ft | 436 kts | 285° |
| 2026-05-04 16:17 | 26.81213 | 50.61496 | 39776 ft | 437 kts | 286° |
| 2026-05-04 16:18 | 26.85562 | 50.48795 | 39767 ft | 437 kts | 286° |
| 2026-05-04 16:19 | 26.92779 | 50.33705 | 39767 ft | 444 kts | 296° |
| 2026-05-04 16:20 | 27.00377 | 50.19946 | 39777 ft | 444 kts | 296° |
| 2026-05-04 16:22 | 27.09401 | 50.05821 | 39767 ft | 450 kts | 304° |
| 2026-05-04 16:23 | 27.20705 | 49.91009 | 39767 ft | 450 kts | 303° |
| 2026-05-04 16:25 | 27.32751 | 49.75103 | 39785 ft | 449 kts | 303° |
| 2026-05-04 16:26 | 27.46908 | 49.56370 | 39783 ft | 450 kts | 305° |
| 2026-05-04 16:28 | 27.59085 | 49.44835 | 38176 ft | 459 kts | 314° |
| 2026-05-04 16:28 | 27.66588 | 49.38148 | 36159 ft | 458 kts | 314° |
| 2026-05-04 16:29 | 27.76581 | 49.29163 | 33150 ft | 463 kts | 314° |
| 2026-05-04 16:30 | 27.84090 | 49.22399 | 31274 ft | 455 kts | 315° |
| 2026-05-04 16:31 | 27.89234 | 49.18255 | 30097 ft | 455 kts | 322° |
| 2026-05-04 16:31 | 27.97279 | 49.12892 | 28407 ft | 440 kts | 323° |
| 2026-05-04 16:32 | 28.05308 | 49.07644 | 26621 ft | 442 kts | 324° |
| 2026-05-04 16:33 | 28.10584 | 49.04184 | 25413 ft | 435 kts | 324° |
| 2026-05-04 16:33 | 28.15793 | 49.00753 | 24206 ft | 430 kts | 325° |
| 2026-05-04 16:34 | 28.20930 | 48.97367 | 23010 ft | 424 kts | 325° |
| 2026-05-04 16:34 | 28.23462 | 48.95697 | 22416 ft | 420 kts | 326° |
| 2026-05-04 16:35 | 28.30874 | 48.90814 | 21433 ft | 398 kts | 326° |
| 2026-05-04 16:35 | 28.37444 | 48.86490 | 20549 ft | 333 kts | 325° |
| 2026-05-04 16:36 | 28.39394 | 48.85197 | 20366 ft | 321 kts | 325° |
| 2026-05-04 16:36 | 28.43234 | 48.82630 | 20081 ft | 320 kts | 325° |
| 2026-05-04 16:37 | 28.47059 | 48.80078 | 19654 ft | 317 kts | 325° |
| 2026-05-04 16:37 | 28.48937 | 48.78831 | 19441 ft | 316 kts | 325° |
| 2026-05-04 16:37 | 28.52720 | 48.76318 | 19001 ft | 314 kts | 325° |
| 2026-05-04 16:38 | 28.56431 | 48.73771 | 18500 ft | 308 kts | 320° |
| 2026-05-04 16:39 | 28.60607 | 48.68435 | 17745 ft | 299 kts | 305° |
| 2026-05-04 16:39 | 28.63123 | 48.64686 | 17247 ft | 296 kts | 305° |
| 2026-05-04 16:40 | 28.65605 | 48.60962 | 16960 ft | 295 kts | 304° |
| 2026-05-04 16:40 | 28.68075 | 48.57247 | 16731 ft | 293 kts | 304° |
| 2026-05-04 16:41 | 28.70533 | 48.53545 | 16480 ft | 292 kts | 304° |
| 2026-05-04 16:41 | 28.74566 | 48.48406 | 15791 ft | 294 kts | 324° |
| 2026-05-04 16:42 | 28.79930 | 48.45035 | 15053 ft | 292 kts | 328° |
| 2026-05-04 16:43 | 28.83489 | 48.42839 | 14541 ft | 290 kts | 328° |
| 2026-05-04 16:43 | 28.87019 | 48.40655 | 14042 ft | 288 kts | 328° |
| 2026-05-04 16:43 | 28.88770 | 48.39567 | 13787 ft | 286 kts | 328° |
| 2026-05-04 16:44 | 28.95704 | 48.35252 | 12998 ft | 282 kts | 328° |
| 2026-05-04 16:45 | 28.99144 | 48.33106 | 12997 ft | 281 kts | 328° |
| 2026-05-04 16:46 | 29.04241 | 48.29935 | 12113 ft | 277 kts | 328° |
| 2026-05-04 16:46 | 29.07607 | 48.27829 | 11274 ft | 275 kts | 328° |
| 2026-05-04 16:47 | 29.10957 | 48.25734 | 10389 ft | 275 kts | 329° |
| 2026-05-04 16:47 | 29.14297 | 48.23647 | 9647 ft | 270 kts | 330° |
| 2026-05-04 16:48 | 29.18995 | 48.20713 | 8937 ft | 250 kts | 330° |
| 2026-05-04 16:48 | 29.20535 | 48.19744 | 8547 ft | 250 kts | 330° |
| 2026-05-04 16:49 | 29.23568 | 48.17850 | 7863 ft | 247 kts | 330° |
| 2026-05-04 16:49 | 29.26537 | 48.15991 | 7184 ft | 244 kts | 330° |
| 2026-05-04 16:50 | 29.29520 | 48.14126 | 6452 ft | 242 kts | 330° |
| 2026-05-04 16:50 | 29.32425 | 48.12302 | 5768 ft | 239 kts | 331° |
| 2026-05-04 16:51 | 29.35332 | 48.10474 | 5040 ft | 238 kts | 330° |
| 2026-05-04 16:51 | 29.36781 | 48.09562 | 4680 ft | 237 kts | 330° |
| 2026-05-04 16:51 | 29.39674 | 48.07741 | 3956 ft | 237 kts | 330° |
| 2026-05-04 16:52 | 29.42571 | 48.05915 | 3217 ft | 237 kts | 330° |
| 2026-05-04 16:52 | 29.44006 | 48.05011 | 3016 ft | 236 kts | 331° |
| 2026-05-04 16:53 | 29.46892 | 48.03196 | 2978 ft | 231 kts | 331° |
| 2026-05-04 16:53 | 29.48878 | 47.99240 | 2524 ft | 201 kts | 251° |
| 2026-05-04 16:54 | 29.48342 | 47.97750 | 2510 ft | 203 kts | 245° |
| 2026-05-04 16:55 | 29.45851 | 47.91930 | 2495 ft | 204 kts | 244° |
| 2026-05-04 16:55 | 29.44596 | 47.89015 | 2494 ft | 203 kts | 244° |
| 2026-05-04 16:56 | 29.43215 | 47.86190 | 2489 ft | 206 kts | 224° |
| 2026-05-04 16:56 | 29.39302 | 47.85386 | 2497 ft | 195 kts | 160° |
| 2026-05-04 16:57 | 29.38061 | 47.86024 | 2498 ft | 196 kts | 154° |
| 2026-05-04 16:57 | 29.35605 | 47.87355 | 2503 ft | 195 kts | 155° |
| 2026-05-04 16:58 | 29.32018 | 47.89259 | 2164 ft | 176 kts | 154° |
| 2026-05-04 16:58 | 29.30933 | 47.89839 | 1933 ft | 164 kts | 154° |
| 2026-05-04 16:59 | 29.29009 | 47.90871 | 1520 ft | 144 kts | 153° |
| 2026-05-04 17:00 | 29.25452 | 47.92784 | 777 ft | 140 kts | 153° |
| 2026-05-04 17:00 | 29.22818 | 47.94212 | 282 ft | 141 kts | 155° |
| 2026-05-04 17:01 | 29.21904 | 47.94680 | 224 ft | 0 kts | 151° |